Time;durP1;ratioP1;P1;durP2;ratioP2;P2;SDS_P1;SDS_P2;PMS_P1;PMS_P2;Temp;Humidity;BMP_temperature;BMP_pressure;BME280_temperature;BME280_humidity;BME280_pressure;Samples;Min_cycle;Max_cycle;Signal;HPM_P1;HPM_P2
2023/12/30 00:01:50;;;;;;;5.50;2.43;;;;;;;;;;4939920;28;20654;-88
2023/12/30 00:04:15;;;;;;;6.93;2.17;;;;;;;;;;4924294;28;20232;-87
2023/12/30 00:06:41;;;;;;;4.40;2.40;;;;;;;;;;4928273;29;20575;-87
2023/12/30 00:09:09;;;;;;;9.60;2.10;;;;;;;;;;4934275;28;20219;-87
2023/12/30 00:11:37;;;;;;;5.73;2.03;;;;;;;;;;4932599;28;20226;-85
2023/12/30 00:14:05;;;;;;;3.93;2.10;;;;;;;;;;4939198;28;20610;-85
2023/12/30 00:16:33;;;;;;;4.07;1.63;;;;;;;;;;4917883;29;20238;-86
2023/12/30 00:18:58;;;;;;;5.10;1.60;;;;;;;;;;4953988;28;20215;-84
2023/12/30 00:21:30;;;;;;;5.03;1.67;;;;;;;;;;4929376;28;20226;-86
2023/12/30 00:23:58;;;;;;;3.80;1.60;;;;;;;;;;4958716;28;20578;-85
2023/12/30 00:26:26;;;;;;;4.53;1.70;;;;;;;;;;4943773;28;20254;-86
2023/12/30 00:29:10;;;;;;;4.33;1.50;;;;;;;;;;4915864;28;20226;-87
2023/12/30 00:31:36;;;;;;;7.67;1.73;;;;;;;;;;4938071;28;20235;-87
2023/12/30 00:34:02;;;;;;;5.03;1.40;;;;;;;;;;4916149;28;21075;-85
2023/12/30 00:36:28;;;;;;;3.70;1.67;;;;;;;;;;4917523;28;20214;-88
2023/12/30 00:38:54;;;;;;;4.43;1.93;;;;;;;;;;4931882;28;20215;-87
2023/12/30 00:41:23;;;;;;;3.37;1.57;;;;;;;;;;4919027;28;20278;-87
2023/12/30 00:43:51;;;;;;;3.40;1.77;;;;;;;;;;4944985;28;20222;-84
2023/12/30 00:46:19;;;;;;;2.30;1.77;;;;;;;;;;4927403;28;20451;-85
2023/12/30 00:48:48;;;;;;;5.17;1.90;;;;;;;;;;4962634;28;20219;-85
2023/12/30 00:51:14;;;;;;;2.93;1.50;;;;;;;;;;4923564;28;20219;-88
2023/12/30 00:53:39;;;;;;;3.70;1.83;;;;;;;;;;4940972;29;20593;-88
2023/12/30 00:56:05;;;;;;;4.43;1.53;;;;;;;;;;4949788;28;20226;-86
2023/12/30 00:58:33;;;;;;;3.27;1.43;;;;;;;;;;4925356;28;20644;-85
2023/12/30 01:00:59;;;;;;;3.23;1.50;;;;;;;;;;4946688;28;20743;-84
2023/12/30 01:03:27;;;;;;;4.73;1.67;;;;;;;;;;4916188;28;20222;-87
2023/12/30 01:05:58;;;;;;;3.00;1.30;;;;;;;;;;4946343;28;20265;-86
2023/12/30 01:08:23;;;;;;;3.97;1.30;;;;;;;;;;4931801;28;20227;-86
2023/12/30 01:10:49;;;;;;;4.57;1.50;;;;;;;;;;4919605;28;20217;-86
2023/12/30 01:13:15;;;;;;;2.93;1.27;;;;;;;;;;4929315;28;20252;-89
2023/12/30 01:15:42;;;;;;;2.43;1.07;;;;;;;;;;4929698;29;20648;-85
2023/12/30 01:18:08;;;;;;;2.87;1.60;;;;;;;;;;4933576;28;20229;-84
2023/12/30 01:20:36;;;;;;;2.40;1.67;;;;;;;;;;4934529;28;20214;-86
2023/12/30 01:23:07;;;;;;;3.10;2.10;;;;;;;;;;4929132;28;20226;-86
2023/12/30 01:25:38;;;;;;;3.13;1.50;;;;;;;;;;4929601;28;20230;-86
2023/12/30 01:28:09;;;;;;;5.93;2.13;;;;;;;;;;4949029;28;20255;-85
2023/12/30 01:30:36;;;;;;;4.00;2.03;;;;;;;;;;4930108;28;20223;-87
2023/12/30 01:33:05;;;;;;;2.57;1.70;;;;;;;;;;4958046;28;20220;-86
2023/12/30 01:35:31;;;;;;;4.10;1.90;;;;;;;;;;4938188;28;20700;-88
2023/12/30 01:37:59;;;;;;;1.90;1.57;;;;;;;;;;4934904;28;20308;-87
2023/12/30 01:40:26;;;;;;;4.47;1.80;;;;;;;;;;4932831;28;20218;-85
2023/12/30 01:42:51;;;;;;;3.10;1.70;;;;;;;;;;4938983;28;20228;-85
2023/12/30 01:45:19;;;;;;;4.27;2.20;;;;;;;;;;4933874;28;20222;-87
2023/12/30 01:47:47;;;;;;;3.67;1.70;;;;;;;;;;4923285;28;20226;-86
2023/12/30 01:50:12;;;;;;;4.73;2.43;;;;;;;;;;4932189;28;20219;-86
2023/12/30 01:52:43;;;;;;;4.20;2.00;;;;;;;;;;4942970;28;20297;-86
2023/12/30 01:55:11;;;;;;;3.03;2.03;;;;;;;;;;4932960;28;20210;-86
2023/12/30 01:57:37;;;;;;;6.33;2.43;;;;;;;;;;4926635;28;20602;-86
2023/12/30 02:00:08;;;;;;;2.70;2.00;;;;;;;;;;4943569;28;20219;-86
2023/12/30 02:02:42;;;;;;;3.47;2.00;;;;;;;;;;4920341;28;20257;-86
2023/12/30 02:05:08;;;;;;;2.90;1.97;;;;;;;;;;4933404;28;20221;-85
2023/12/30 02:07:36;;;;;;;4.30;1.97;;;;;;;;;;4928115;28;20228;-85
2023/12/30 02:10:03;;;;;;;2.63;2.03;;;;;;;;;;4932012;28;20833;-86
2023/12/30 02:12:28;;;;;;;5.03;2.63;;;;;;;;;;4939423;28;20219;-83
2023/12/30 02:15:14;;;;;;;3.83;2.23;;;;;;;;;;4956067;28;20226;-85
2023/12/30 02:17:40;;;;;;;3.53;2.30;;;;;;;;;;4931216;28;20219;-85
2023/12/30 02:20:05;;;;;;;4.47;2.20;;;;;;;;;;4935201;28;20230;-83
2023/12/30 02:22:33;;;;;;;3.40;2.27;;;;;;;;;;4941384;28;20233;-85
2023/12/30 02:25:00;;;;;;;4.13;2.40;;;;;;;;;;4934240;28;20215;-86
2023/12/30 02:27:28;;;;;;;6.33;2.07;;;;;;;;;;4939909;28;20233;-86
2023/12/30 02:29:56;;;;;;;6.17;2.20;;;;;;;;;;4955082;28;20238;-84
2023/12/30 02:32:21;;;;;;;3.90;1.90;;;;;;;;;;4939773;28;20227;-86
2023/12/30 02:34:47;;;;;;;5.53;2.50;;;;;;;;;;4945977;28;20223;-87
2023/12/30 02:37:12;;;;;;;4.43;2.10;;;;;;;;;;4930704;28;20222;-85
2023/12/30 02:39:38;;;;;;;6.53;2.37;;;;;;;;;;4926669;28;20358;-84
2023/12/30 02:42:08;;;;;;;5.63;2.40;;;;;;;;;;4944015;28;20401;-84
2023/12/30 02:44:35;;;;;;;3.97;2.43;;;;;;;;;;4970788;28;20290;-83
2023/12/30 02:47:00;;;;;;;3.63;2.30;;;;;;;;;;4937493;28;20277;-87
2023/12/30 02:49:31;;;;;;;3.20;2.30;;;;;;;;;;4914068;28;20596;-84
2023/12/30 02:51:57;;;;;;;8.27;4.80;;;;;;;;;;4927137;28;20226;-88
2023/12/30 02:54:23;;;;;;;4.50;2.40;;;;;;;;;;4931639;28;20231;-87
2023/12/30 02:56:48;;;;;;;5.50;2.40;;;;;;;;;;4959696;28;20586;-86
2023/12/30 02:59:14;;;;;;;5.13;2.53;;;;;;;;;;4933509;28;21024;-87
2023/12/30 03:01:41;;;;;;;4.43;3.07;;;;;;;;;;4933834;28;20235;-87
2023/12/30 03:04:07;;;;;;;4.90;2.77;;;;;;;;;;4914293;28;20229;-87
2023/12/30 03:06:35;;;;;;;15.23;9.13;;;;;;;;;;4928883;28;20222;-87
2023/12/30 03:09:06;;;;;;;18.20;9.97;;;;;;;;;;4945243;28;20641;-87
2023/12/30 03:11:32;;;;;;;17.93;9.80;;;;;;;;;;4916273;28;20850;-88
2023/12/30 03:14:00;;;;;;;9.23;5.17;;;;;;;;;;4913803;28;20223;-86
2023/12/30 03:16:27;;;;;;;10.93;1.70;;;;;;;;;;4915411;28;20217;-86
2023/12/30 03:18:53;;;;;;;7.43;2.30;;;;;;;;;;4932941;28;20206;-87
2023/12/30 03:21:19;;;;;;;6.70;1.57;;;;;;;;;;4930296;28;20222;-86
2023/12/30 03:23:47;;;;;;;3.70;1.70;;;;;;;;;;4921569;28;20230;-86
2023/12/30 03:26:15;;;;;;;6.60;2.20;;;;;;;;;;4974025;28;20226;-84
2023/12/30 03:28:45;;;;;;;6.27;2.00;;;;;;;;;;4913236;28;20223;-88
2023/12/30 03:31:27;;;;;;;3.90;2.47;;;;;;;;;;4929719;28;20227;-86
2023/12/30 03:33:55;;;;;;;7.60;1.60;;;;;;;;;;4959234;28;20255;-87
2023/12/30 03:36:24;;;;;;;3.47;2.13;;;;;;;;;;4951053;28;20214;-85
2023/12/30 03:38:52;;;;;;;9.57;2.10;;;;;;;;;;4912419;28;20731;-84
2023/12/30 03:41:20;;;;;;;3.37;1.33;;;;;;;;;;4918083;28;20217;-87
2023/12/30 03:43:49;;;;;;;7.20;1.40;;;;;;;;;;4937057;28;20230;-86
2023/12/30 03:46:17;;;;;;;5.07;1.60;;;;;;;;;;4930970;28;20695;-86
2023/12/30 03:48:43;;;;;;;4.03;1.70;;;;;;;;;;4928962;28;20234;-86
2023/12/30 03:51:11;;;;;;;4.73;1.53;;;;;;;;;;4943488;28;20229;-87
2023/12/30 03:53:41;;;;;;;5.83;1.13;;;;;;;;;;4911670;28;20235;-86
2023/12/30 03:56:06;;;;;;;5.17;1.70;;;;;;;;;;4962592;28;20743;-86
2023/12/30 04:02:21;;;;;;;3.73;1.47;;;;;;;;;;4959664;28;20306;-87
2023/12/30 04:04:52;;;;;;;8.10;1.60;;;;;;;;;;4924176;28;20748;-85
2023/12/30 04:07:17;;;;;;;2.27;1.40;;;;;;;;;;4938919;28;20286;-85
2023/12/30 04:09:45;;;;;;;7.77;1.63;;;;;;;;;;4957302;28;20235;-87
2023/12/30 04:12:14;;;;;;;2.23;1.30;;;;;;;;;;4922199;28;20444;-87
2023/12/30 04:14:43;;;;;;;3.30;1.53;;;;;;;;;;4920042;29;20230;-86
2023/12/30 04:17:12;;;;;;;1.93;1.07;;;;;;;;;;4951392;28;20222;-86
2023/12/30 04:19:37;;;;;;;4.27;1.30;;;;;;;;;;4906388;28;20223;-87
2023/12/30 04:22:03;;;;;;;4.10;1.60;;;;;;;;;;4930921;28;20221;-86
2023/12/30 04:24:28;;;;;;;2.40;1.40;;;;;;;;;;4935654;28;20313;-82
2023/12/30 04:26:54;;;;;;;4.43;1.70;;;;;;;;;;4955197;28;20261;-85
2023/12/30 04:29:23;;;;;;;7.13;1.63;;;;;;;;;;4954641;28;20245;-87
2023/12/30 04:31:51;;;;;;;5.03;1.33;;;;;;;;;;4941372;28;20227;-86
2023/12/30 04:34:16;;;;;;;3.37;1.47;;;;;;;;;;4936774;28;20695;-86
2023/12/30 04:36:42;;;;;;;5.73;1.50;;;;;;;;;;4916512;28;20310;-85
2023/12/30 04:39:10;;;;;;;5.43;1.80;;;;;;;;;;4937635;28;20213;-84
2023/12/30 04:41:39;;;;;;;2.90;1.37;;;;;;;;;;4939509;28;20227;-86
2023/12/30 04:44:04;;;;;;;4.17;1.50;;;;;;;;;;4915162;28;20921;-87
2023/12/30 04:46:30;;;;;;;4.10;1.63;;;;;;;;;;4937051;28;20303;-84
2023/12/30 04:49:02;;;;;;;3.83;1.60;;;;;;;;;;4938761;28;20687;-84
2023/12/30 04:51:31;;;;;;;6.50;1.70;;;;;;;;;;4905393;28;20299;-86
2023/12/30 04:53:59;;;;;;;7.13;1.67;;;;;;;;;;4941760;28;20237;-86
2023/12/30 04:56:25;;;;;;;7.57;1.80;;;;;;;;;;4929253;28;20225;-84
2023/12/30 04:58:51;;;;;;;5.57;1.50;;;;;;;;;;4915557;28;20218;-86
2023/12/30 05:01:16;;;;;;;6.93;1.73;;;;;;;;;;4933138;28;20234;-86
2023/12/30 05:03:44;;;;;;;6.03;1.80;;;;;;;;;;4936381;28;20221;-85
2023/12/30 05:06:21;;;;;;;3.67;1.23;;;;;;;;;;4919573;28;20641;-83
2023/12/30 05:08:50;;;;;;;5.03;1.30;;;;;;;;;;4942569;28;20252;-86
2023/12/30 05:11:16;;;;;;;3.10;1.07;;;;;;;;;;4932296;28;20218;-85
2023/12/30 05:13:45;;;;;;;3.93;1.40;;;;;;;;;;4934287;28;20353;-86
2023/12/30 05:16:11;;;;;;;3.10;1.30;;;;;;;;;;4931951;28;20222;-86
2023/12/30 05:18:39;;;;;;;2.60;1.13;;;;;;;;;;4935077;28;20227;-86
2023/12/30 05:21:10;;;;;;;4.13;1.60;;;;;;;;;;4967263;28;20719;-85
2023/12/30 05:23:36;;;;;;;5.33;1.70;;;;;;;;;;4929563;28;20249;-85
2023/12/30 05:26:02;;;;;;;2.57;1.50;;;;;;;;;;4957252;28;20211;-88
2023/12/30 05:28:28;;;;;;;4.90;1.40;;;;;;;;;;4916349;28;20214;-86
2023/12/30 05:30:53;;;;;;;3.50;1.60;;;;;;;;;;4920768;28;20227;-87
2023/12/30 05:33:19;;;;;;;7.77;1.67;;;;;;;;;;4927175;28;20234;-85
2023/12/30 05:35:46;;;;;;;5.47;1.93;;;;;;;;;;4929329;28;20242;-85
2023/12/30 05:38:12;;;;;;;7.67;1.70;;;;;;;;;;4963351;28;20277;-87
2023/12/30 05:40:43;;;;;;;10.30;1.90;;;;;;;;;;4928748;28;20235;-81
2023/12/30 05:43:11;;;;;;;4.50;1.70;;;;;;;;;;4934031;28;20222;-85
2023/12/30 05:45:43;;;;;;;3.87;1.33;;;;;;;;;;4933794;28;20231;-86
2023/12/30 05:48:14;;;;;;;3.63;1.57;;;;;;;;;;4921699;28;20226;-86
2023/12/30 05:50:39;;;;;;;4.53;1.33;;;;;;;;;;4952737;28;20231;-84
2023/12/30 05:53:10;;;;;;;2.93;1.30;;;;;;;;;;4914850;28;20305;-87
2023/12/30 05:55:36;;;;;;;3.23;1.37;;;;;;;;;;4930903;28;20246;-85
2023/12/30 05:58:01;;;;;;;5.57;1.60;;;;;;;;;;4932641;28;20210;-87
2023/12/30 06:00:33;;;;;;;10.27;1.90;;;;;;;;;;4945133;28;20246;-85
2023/12/30 06:02:58;;;;;;;8.33;1.57;;;;;;;;;;4912464;28;20242;-87
2023/12/30 06:05:24;;;;;;;4.13;1.50;;;;;;;;;;4923273;28;20235;-85
2023/12/30 06:07:50;;;;;;;6.93;1.80;;;;;;;;;;4936915;28;20229;-87
2023/12/30 06:10:19;;;;;;;4.23;1.63;;;;;;;;;;4948590;28;20223;-88
2023/12/30 06:12:44;;;;;;;4.87;1.43;;;;;;;;;;4935100;28;20258;-84
2023/12/30 06:15:10;;;;;;;5.53;1.57;;;;;;;;;;4912251;28;21151;-87
2023/12/30 06:17:40;;;;;;;5.97;1.47;;;;;;;;;;4939174;28;21068;-84
2023/12/30 06:20:08;;;;;;;9.00;1.60;;;;;;;;;;4948146;28;20223;-86
2023/12/30 06:22:33;;;;;;;6.73;1.40;;;;;;;;;;4945934;28;20238;-86
2023/12/30 06:25:04;;;;;;;6.60;1.40;;;;;;;;;;4926725;28;20230;-86
2023/12/30 06:27:32;;;;;;;3.57;1.50;;;;;;;;;;4928006;28;20230;-86
2023/12/30 06:30:00;;;;;;;2.40;1.40;;;;;;;;;;4928324;28;20243;-88
2023/12/30 06:32:28;;;;;;;7.70;1.73;;;;;;;;;;4932264;28;20222;-87
2023/12/30 06:34:54;;;;;;;7.03;1.53;;;;;;;;;;4954416;28;21149;-85
2023/12/30 06:37:22;;;;;;;6.30;1.70;;;;;;;;;;4938177;28;20219;-85
2023/12/30 06:39:49;;;;;;;3.93;1.30;;;;;;;;;;4922356;28;20856;-84
2023/12/30 06:42:18;;;;;;;7.60;1.80;;;;;;;;;;4957332;28;20218;-83
2023/12/30 06:44:48;;;;;;;3.00;1.40;;;;;;;;;;4946901;28;20223;-85
2023/12/30 06:47:13;;;;;;;5.17;1.70;;;;;;;;;;4962112;28;20237;-86
2023/12/30 06:49:41;;;;;;;4.60;1.67;;;;;;;;;;4914825;28;20289;-84
2023/12/30 06:52:07;;;;;;;7.93;1.70;;;;;;;;;;4927921;28;20618;-84
2023/12/30 06:54:35;;;;;;;7.03;1.70;;;;;;;;;;4910438;28;20251;-85
2023/12/30 06:57:06;;;;;;;6.23;1.60;;;;;;;;;;4915824;28;20308;-84
2023/12/30 06:59:35;;;;;;;4.47;1.47;;;;;;;;;;4946601;28;20233;-84
2023/12/30 07:02:03;;;;;;;3.90;1.60;;;;;;;;;;4940705;29;20214;-85
2023/12/30 07:04:29;;;;;;;5.43;1.93;;;;;;;;;;4938903;28;20245;-86
2023/12/30 07:06:55;;;;;;;5.70;1.90;;;;;;;;;;4921066;29;20253;-86
2023/12/30 07:09:21;;;;;;;11.30;2.40;;;;;;;;;;4946192;28;20211;-86
2023/12/30 07:11:47;;;;;;;10.70;2.37;;;;;;;;;;4933730;28;20631;-85
2023/12/30 07:14:14;;;;;;;4.97;1.87;;;;;;;;;;4945540;28;20321;-85
2023/12/30 07:16:40;;;;;;;5.03;1.30;;;;;;;;;;4914155;28;20378;-87
2023/12/30 07:19:08;;;;;;;6.63;1.80;;;;;;;;;;4929519;28;20316;-85
2023/12/30 07:21:34;;;;;;;7.07;1.80;;;;;;;;;;4921138;29;20263;-86
2023/12/30 07:24:01;;;;;;;5.03;1.77;;;;;;;;;;4921718;28;20225;-86
2023/12/30 07:26:27;;;;;;;6.10;2.00;;;;;;;;;;4954429;28;20232;-86
2023/12/30 07:28:54;;;;;;;4.37;1.70;;;;;;;;;;4944445;28;20233;-86
2023/12/30 07:31:22;;;;;;;6.70;1.60;;;;;;;;;;4938653;28;20308;-83
2023/12/30 07:33:49;;;;;;;5.47;1.60;;;;;;;;;;4943558;28;20238;-86
2023/12/30 07:36:14;;;;;;;7.23;1.83;;;;;;;;;;4945149;28;20276;-86
2023/12/30 07:38:40;;;;;;;4.93;1.90;;;;;;;;;;4930722;29;20266;-84
2023/12/30 07:41:06;;;;;;;3.83;1.40;;;;;;;;;;4936265;28;20241;-86
2023/12/30 07:43:31;;;;;;;6.70;1.90;;;;;;;;;;4932202;28;20238;-85
2023/12/30 07:46:02;;;;;;;6.90;1.90;;;;;;;;;;4951080;28;20598;-87
2023/12/30 07:48:30;;;;;;;3.07;1.40;;;;;;;;;;4937308;28;20308;-87
2023/12/30 07:50:59;;;;;;;8.50;1.80;;;;;;;;;;4971567;28;20324;-85
2023/12/30 07:53:25;;;;;;;7.07;1.83;;;;;;;;;;4961562;28;20226;-84
2023/12/30 07:55:51;;;;;;;7.00;2.27;;;;;;;;;;4917133;29;20247;-86
2023/12/30 07:58:19;;;;;;;7.93;2.17;;;;;;;;;;4929444;28;20219;-84
2023/12/30 08:00:45;;;;;;;7.87;2.23;;;;;;;;;;4947051;28;20258;-85
2023/12/30 08:03:13;;;;;;;7.77;2.33;;;;;;;;;;4939551;28;20230;-85
2023/12/30 08:05:42;;;;;;;7.73;2.03;;;;;;;;;;4935619;28;20231;-86
2023/12/30 08:08:12;;;;;;;6.30;2.00;;;;;;;;;;4962358;28;20312;-84
2023/12/30 08:10:40;;;;;;;9.10;2.00;;;;;;;;;;4929191;28;20234;-86
2023/12/30 08:13:05;;;;;;;7.37;2.10;;;;;;;;;;4931248;28;20743;-88
2023/12/30 08:15:33;;;;;;;7.17;1.73;;;;;;;;;;4947989;28;20226;-85
2023/12/30 08:18:03;;;;;;;6.87;2.10;;;;;;;;;;4930669;28;20605;-87
2023/12/30 08:20:28;;;;;;;9.20;2.27;;;;;;;;;;4931542;29;20219;-88
2023/12/30 08:22:59;;;;;;;5.17;1.60;;;;;;;;;;4949848;28;20311;-85
2023/12/30 08:25:27;;;;;;;8.67;2.03;;;;;;;;;;4954036;28;20223;-86
2023/12/30 08:27:53;;;;;;;10.90;2.40;;;;;;;;;;4939953;28;20258;-84
2023/12/30 08:30:18;;;;;;;5.00;1.73;;;;;;;;;;4944173;28;20233;-85
2023/12/30 08:32:46;;;;;;;8.07;1.80;;;;;;;;;;4916809;29;20230;-87
2023/12/30 08:35:17;;;;;;;9.27;2.07;;;;;;;;;;4932434;28;20669;-85
2023/12/30 08:37:42;;;;;;;5.30;1.97;;;;;;;;;;4944662;28;20233;-87
2023/12/30 08:40:14;;;;;;;5.27;2.30;;;;;;;;;;4922865;28;20226;-87
2023/12/30 08:42:44;;;;;;;8.00;1.83;;;;;;;;;;4947895;28;20244;-87
2023/12/30 08:45:17;;;;;;;6.30;2.20;;;;;;;;;;4930057;28;20231;-86
2023/12/30 08:47:46;;;;;;;7.70;2.17;;;;;;;;;;4943775;28;20256;-85
2023/12/30 08:50:19;;;;;;;6.47;2.40;;;;;;;;;;4936274;28;21043;-87
2023/12/30 08:52:44;;;;;;;8.47;3.07;;;;;;;;;;4972188;28;20226;-87
2023/12/30 08:55:11;;;;;;;8.43;2.80;;;;;;;;;;4928971;28;20254;-86
2023/12/30 08:57:38;;;;;;;10.47;2.70;;;;;;;;;;4953552;28;20226;-85
2023/12/30 09:00:08;;;;;;;6.47;2.23;;;;;;;;;;4950442;28;20206;-87
2023/12/30 09:02:37;;;;;;;4.53;1.80;;;;;;;;;;4953152;28;20227;-85
2023/12/30 09:05:10;;;;;;;6.67;1.83;;;;;;;;;;4945823;28;20322;-87
2023/12/30 09:07:36;;;;;;;6.73;2.20;;;;;;;;;;4922750;29;20227;-83
2023/12/30 09:10:03;;;;;;;5.77;2.17;;;;;;;;;;4918236;28;20234;-87
2023/12/30 09:12:29;;;;;;;7.17;1.90;;;;;;;;;;4911053;28;20219;-86
2023/12/30 09:14:55;;;;;;;6.40;1.83;;;;;;;;;;4913189;29;20227;-86
2023/12/30 09:17:20;;;;;;;6.53;2.13;;;;;;;;;;4937984;28;20226;-84
2023/12/30 09:19:48;;;;;;;8.70;2.13;;;;;;;;;;4916522;28;20732;-87
2023/12/30 09:22:14;;;;;;;6.97;1.90;;;;;;;;;;4927828;28;20235;-85
2023/12/30 09:24:41;;;;;;;8.70;2.37;;;;;;;;;;4932062;29;20302;-86
2023/12/30 09:27:08;;;;;;;4.20;1.73;;;;;;;;;;4920115;28;20239;-85
2023/12/30 09:29:33;;;;;;;4.90;1.80;;;;;;;;;;4922503;29;20235;-85
2023/12/30 09:32:02;;;;;;;9.63;2.07;;;;;;;;;;4935476;28;20258;-84
2023/12/30 09:34:29;;;;;;;9.23;2.23;;;;;;;;;;4941247;28;20238;-85
2023/12/30 09:37:04;;;;;;;6.90;2.10;;;;;;;;;;4925102;28;20218;-84
2023/12/30 09:39:30;;;;;;;5.37;1.50;;;;;;;;;;4918900;28;20238;-84
2023/12/30 09:41:56;;;;;;;5.10;1.60;;;;;;;;;;4932299;29;20240;-85
2023/12/30 09:44:25;;;;;;;5.97;1.80;;;;;;;;;;4929416;28;20238;-85
2023/12/30 09:46:55;;;;;;;5.00;1.90;;;;;;;;;;4948428;28;20617;-86
2023/12/30 09:49:25;;;;;;;10.90;2.13;;;;;;;;;;4934058;28;20238;-86
2023/12/30 09:51:51;;;;;;;4.50;1.83;;;;;;;;;;4908216;29;20235;-85
2023/12/30 09:54:16;;;;;;;6.53;1.80;;;;;;;;;;4928460;28;20230;-86
2023/12/30 09:56:42;;;;;;;4.57;1.80;;;;;;;;;;4931193;28;20706;-86
2023/12/30 09:59:08;;;;;;;6.63;2.03;;;;;;;;;;4955489;28;20222;-88
2023/12/30 10:01:33;;;;;;;5.80;2.20;;;;;;;;;;4938264;28;20274;-87
2023/12/30 10:04:03;;;;;;;8.33;2.20;;;;;;;;;;4921962;28;20261;-87
2023/12/30 10:06:31;;;;;;;6.73;2.67;;;;;;;;;;4914790;29;20595;-87
2023/12/30 10:09:02;;;;;;;9.43;2.40;;;;;;;;;;4939178;28;20226;-85
2023/12/30 10:11:28;;;;;;;9.17;2.70;;;;;;;;;;4919653;28;21105;-85
2023/12/30 10:13:55;;;;;;;5.43;2.53;;;;;;;;;;4933321;28;20247;-87
2023/12/30 10:16:21;;;;;;;8.53;2.23;;;;;;;;;;4919512;28;20234;-86
2023/12/30 10:18:49;;;;;;;5.70;2.10;;;;;;;;;;4919649;28;20814;-86
2023/12/30 10:21:17;;;;;;;6.83;2.00;;;;;;;;;;4926872;28;20230;-87
2023/12/30 10:23:48;;;;;;;7.30;2.23;;;;;;;;;;4945978;28;20303;-86
2023/12/30 10:26:14;;;;;;;10.00;2.97;;;;;;;;;;4934262;28;20222;-85
2023/12/30 10:28:39;;;;;;;4.37;2.10;;;;;;;;;;4946453;28;20215;-83
2023/12/30 10:31:06;;;;;;;9.90;2.20;;;;;;;;;;4941649;28;20230;-85
2023/12/30 10:33:33;;;;;;;8.70;2.10;;;;;;;;;;4936515;28;20230;-86
2023/12/30 10:35:59;;;;;;;6.60;2.07;;;;;;;;;;4969183;28;20240;-87
2023/12/30 10:38:27;;;;;;;5.43;1.90;;;;;;;;;;4938771;28;20383;-86
2023/12/30 10:40:55;;;;;;;5.33;2.27;;;;;;;;;;4977693;28;20230;-87
2023/12/30 10:43:20;;;;;;;5.03;2.00;;;;;;;;;;4938591;28;20227;-86
2023/12/30 10:45:59;;;;;;;7.90;2.77;;;;;;;;;;4944726;28;20227;-86
2023/12/30 10:48:29;;;;;;;6.77;2.20;;;;;;;;;;4944881;28;20222;-88
2023/12/30 10:50:55;;;;;;;6.00;2.00;;;;;;;;;;4937687;28;20235;-84
2023/12/30 10:53:26;;;;;;;3.93;1.60;;;;;;;;;;4944570;28;20224;-84
2023/12/30 10:55:55;;;;;;;7.17;2.33;;;;;;;;;;4932873;28;20266;-84
2023/12/30 10:58:23;;;;;;;4.47;2.17;;;;;;;;;;4914866;28;20266;-86
2023/12/30 11:00:53;;;;;;;7.50;1.87;;;;;;;;;;4948775;28;20231;-86
2023/12/30 11:03:20;;;;;;;6.83;2.10;;;;;;;;;;4929770;28;20222;-87
2023/12/30 11:06:09;;;;;;;6.20;1.77;;;;;;;;;;4946429;29;20230;-85
2023/12/30 11:08:41;;;;;;;9.87;2.20;;;;;;;;;;4968744;28;20235;-84
2023/12/30 11:11:07;;;;;;;6.93;2.20;;;;;;;;;;4917289;28;20239;-84
2023/12/30 11:13:42;;;;;;;7.23;2.33;;;;;;;;;;5052387;27;1374523;-80
2023/12/30 11:16:15;;;;;;;8.17;2.50;;;;;;;;;;5019099;28;20255;-78
2023/12/30 11:18:49;;;;;;;7.47;2.30;;;;;;;;;;5032960;28;20226;-79
2023/12/30 11:21:43;;;;;;;8.23;2.40;;;;;;;;;;5085947;28;20218;-78
2023/12/30 11:24:12;;;;;;;11.07;2.27;;;;;;;;;;5062629;28;20726;-80
2023/12/30 11:26:42;;;;;;;3.63;1.90;;;;;;;;;;5030581;28;20243;-80
2023/12/30 11:29:11;;;;;;;4.63;2.00;;;;;;;;;;5038888;28;20226;-83
2023/12/30 11:31:40;;;;;;;6.80;2.40;;;;;;;;;;5049316;28;20227;-79
2023/12/30 11:34:09;;;;;;;7.10;2.43;;;;;;;;;;5037763;28;20688;-79
2023/12/30 11:36:35;;;;;;;5.90;2.17;;;;;;;;;;5062649;28;20378;-80
2023/12/30 11:39:00;;;;;;;12.43;2.37;;;;;;;;;;5045882;28;20656;-79
2023/12/30 11:41:27;;;;;;;9.40;1.83;;;;;;;;;;5033207;28;20328;-80
2023/12/30 11:44:02;;;;;;;5.57;1.87;;;;;;;;;;5017029;28;20210;-81
2023/12/30 11:46:28;;;;;;;5.07;2.03;;;;;;;;;;5046293;28;20220;-81
2023/12/30 11:48:54;;;;;;;5.40;2.10;;;;;;;;;;5064636;28;20222;-81
2023/12/30 11:51:21;;;;;;;3.90;1.90;;;;;;;;;;5065564;28;20226;-81
2023/12/30 11:53:46;;;;;;;5.30;2.53;;;;;;;;;;5048340;28;20432;-80
2023/12/30 11:56:17;;;;;;;5.73;2.13;;;;;;;;;;5029180;28;20229;-78
2023/12/30 11:58:43;;;;;;;9.90;2.23;;;;;;;;;;5029919;28;20223;-79
2023/12/30 12:01:08;;;;;;;4.47;2.43;;;;;;;;;;5064479;28;20221;-78
2023/12/30 12:03:34;;;;;;;6.50;2.10;;;;;;;;;;5048936;28;20718;-81
2023/12/30 12:06:04;;;;;;;5.37;2.30;;;;;;;;;;5049496;28;20727;-79
2023/12/30 12:08:31;;;;;;;6.13;2.20;;;;;;;;;;5053714;28;20718;-82
2023/12/30 12:10:57;;;;;;;6.30;2.20;;;;;;;;;;5041968;28;22223;-79
2023/12/30 12:13:25;;;;;;;4.80;1.87;;;;;;;;;;5044022;28;20229;-81
2023/12/30 12:15:56;;;;;;;6.10;1.60;;;;;;;;;;5074737;28;20210;-79
2023/12/30 12:18:22;;;;;;;6.80;2.10;;;;;;;;;;5060688;28;20229;-78
2023/12/30 12:20:53;;;;;;;5.33;1.90;;;;;;;;;;5037245;28;20206;-78
2023/12/30 12:23:24;;;;;;;2.87;1.67;;;;;;;;;;5029352;28;20215;-79
2023/12/30 12:25:50;;;;;;;5.80;2.30;;;;;;;;;;5032443;28;20237;-79
2023/12/30 12:28:17;;;;;;;4.77;2.03;;;;;;;;;;5015058;28;20218;-79
2023/12/30 12:30:46;;;;;;;8.77;2.60;;;;;;;;;;5050763;28;20295;-79
2023/12/30 12:33:16;;;;;;;7.97;3.00;;;;;;;;;;5050654;28;20227;-79
2023/12/30 12:35:42;;;;;;;6.03;2.53;;;;;;;;;;5049061;28;20230;-78
2023/12/30 12:38:07;;;;;;;7.70;2.70;;;;;;;;;;5032115;28;20223;-80
2023/12/30 12:40:33;;;;;;;5.37;2.80;;;;;;;;;;5016606;28;20592;-78
2023/12/30 12:42:58;;;;;;;5.63;3.80;;;;;;;;;;5038527;28;20699;-80
2023/12/30 12:45:24;;;;;;;4.60;2.20;;;;;;;;;;5052843;28;20216;-78
2023/12/30 12:47:52;;;;;;;5.63;3.03;;;;;;;;;;5054625;28;20230;-79
2023/12/30 12:50:17;;;;;;;9.90;4.30;;;;;;;;;;5019506;28;21365;-79
2023/12/30 12:52:45;;;;;;;7.57;2.67;;;;;;;;;;5025661;28;20784;-79
2023/12/30 12:55:18;;;;;;;6.90;2.70;;;;;;;;;;5034167;28;20222;-79
2023/12/30 12:57:43;;;;;;;5.37;2.53;;;;;;;;;;5069898;28;20230;-78
2023/12/30 13:00:12;;;;;;;8.30;2.53;;;;;;;;;;5030440;28;20204;-79
2023/12/30 13:02:38;;;;;;;6.40;2.53;;;;;;;;;;5051566;28;20240;-80
2023/12/30 13:05:06;;;;;;;4.97;2.77;;;;;;;;;;5052626;28;20211;-79
2023/12/30 13:07:31;;;;;;;8.03;2.87;;;;;;;;;;5020279;28;20246;-81
2023/12/30 13:10:00;;;;;;;7.40;3.07;;;;;;;;;;5024493;28;20221;-80
2023/12/30 13:12:28;;;;;;;10.40;3.27;;;;;;;;;;5040719;28;20231;-79
2023/12/30 13:14:58;;;;;;;8.40;3.60;;;;;;;;;;5072661;28;20227;-81
2023/12/30 13:17:26;;;;;;;6.63;2.90;;;;;;;;;;5049070;28;20236;-80
2023/12/30 13:19:56;;;;;;;6.40;2.33;;;;;;;;;;5025627;28;20211;-80
2023/12/30 13:22:24;;;;;;;7.87;2.70;;;;;;;;;;5054409;28;20288;-80
2023/12/30 13:24:51;;;;;;;8.23;2.40;;;;;;;;;;5056995;28;20219;-81
2023/12/30 13:27:19;;;;;;;5.43;2.17;;;;;;;;;;5068148;28;20229;-79
2023/12/30 13:29:47;;;;;;;5.27;2.13;;;;;;;;;;5037382;28;20215;-78
2023/12/30 13:32:17;;;;;;;5.03;2.50;;;;;;;;;;5032808;28;20228;-80
2023/12/30 13:34:47;;;;;;;5.93;1.93;;;;;;;;;;5051668;28;20215;-81
2023/12/30 13:37:15;;;;;;;5.17;2.00;;;;;;;;;;5049551;28;20267;-81
2023/12/30 13:39:43;;;;;;;5.77;2.40;;;;;;;;;;5011918;28;20223;-80
2023/12/30 13:42:11;;;;;;;8.37;2.50;;;;;;;;;;5038367;28;20230;-79
2023/12/30 13:44:42;;;;;;;9.10;2.47;;;;;;;;;;5039864;28;20239;-78
2023/12/30 13:47:38;;;;;;;5.10;2.60;;;;;;;;;;5061855;28;20206;-78
2023/12/30 13:50:19;;;;;;;8.87;2.50;;;;;;;;;;5044317;28;20319;-80
2023/12/30 13:52:46;;;;;;;5.30;2.67;;;;;;;;;;5023559;28;20230;-80
2023/12/30 13:55:15;;;;;;;6.03;2.73;;;;;;;;;;5049820;28;20818;-79
2023/12/30 13:57:41;;;;;;;5.90;3.47;;;;;;;;;;5043311;28;20369;-79
2023/12/30 14:00:07;;;;;;;9.10;3.20;;;;;;;;;;5047780;28;20693;-80
2023/12/30 14:02:38;;;;;;;11.50;4.87;;;;;;;;;;5066896;28;20301;-79
2023/12/30 14:05:13;;;;;;;9.27;2.63;;;;;;;;;;5015808;28;20218;-79
2023/12/30 14:07:44;;;;;;;5.80;2.67;;;;;;;;;;5040811;28;20771;-79
2023/12/30 14:10:12;;;;;;;9.73;2.47;;;;;;;;;;5051834;28;20223;-78
2023/12/30 14:12:40;;;;;;;6.63;3.13;;;;;;;;;;5053233;28;20233;-78
2023/12/30 14:15:17;;;;;;;6.93;2.53;;;;;;;;;;5045158;28;20667;-79
2023/12/30 14:17:50;;;;;;;4.27;2.17;;;;;;;;;;5031950;28;20327;-79
2023/12/30 14:20:18;;;;;;;7.00;2.30;;;;;;;;;;5041115;28;20210;-78
2023/12/30 14:22:43;;;;;;;6.40;2.27;;;;;;;;;;5051892;28;20214;-78
2023/12/30 14:25:13;;;;;;;4.67;2.43;;;;;;;;;;5016900;28;20251;-77
2023/12/30 14:27:40;;;;;;;8.17;3.00;;;;;;;;;;5054595;28;20228;-80
2023/12/30 14:30:06;;;;;;;8.37;2.70;;;;;;;;;;5024104;28;20211;-78
2023/12/30 14:32:36;;;;;;;5.03;2.33;;;;;;;;;;5062005;28;20261;-79
2023/12/30 14:35:03;;;;;;;10.43;2.57;;;;;;;;;;5050377;28;20242;-78
2023/12/30 14:37:31;;;;;;;6.37;2.10;;;;;;;;;;5042948;28;20226;-77
2023/12/30 14:40:01;;;;;;;10.50;4.17;;;;;;;;;;5030404;28;20206;-77
2023/12/30 14:42:27;;;;;;;6.83;2.77;;;;;;;;;;5038069;28;20262;-77
2023/12/30 14:44:55;;;;;;;7.30;4.10;;;;;;;;;;5047392;28;20210;-77
2023/12/30 14:47:20;;;;;;;8.50;3.53;;;;;;;;;;5030648;28;20245;-77
2023/12/30 14:49:48;;;;;;;8.37;3.93;;;;;;;;;;5031577;28;20227;-77
2023/12/30 14:52:16;;;;;;;8.37;4.60;;;;;;;;;;5032446;28;20300;-77